sensor_id;sensor_type;location;lat;lon;timestamp;temperature;humidity
6536;DHT22;34330;52.08032700;5.40923460;2023-05-16T00:01:05;14.50;74.50
6536;DHT22;34330;52.08032700;5.40923460;2023-05-16T00:03:33;14.40;74.40
6536;DHT22;34330;52.08032700;5.40923460;2023-05-16T00:06:02;14.30;74.40
6536;DHT22;34330;52.08032700;5.40923460;2023-05-16T00:08:31;14.30;74.50
6536;DHT22;34330;52.08032700;5.40923460;2023-05-16T00:11:00;14.30;74.60
6536;DHT22;34330;52.08032700;5.40923460;2023-05-16T00:13:28;14.20;74.40
6536;DHT22;34330;52.08032700;5.40923460;2023-05-16T00:15:56;14.20;74.40
6536;DHT22;34330;52.08032700;5.40923460;2023-05-16T00:18:28;14.20;74.50
6536;DHT22;34330;52.08032700;5.40923460;2023-05-16T00:20:55;14.20;74.60
6536;DHT22;34330;52.08032700;5.40923460;2023-05-16T00:23:23;14.10;74.60
6536;DHT22;34330;52.08032700;5.40923460;2023-05-16T00:25:51;14.10;74.60
6536;DHT22;34330;52.08032700;5.40923460;2023-05-16T00:28:20;14.10;74.60
6536;DHT22;34330;52.08032700;5.40923460;2023-05-16T00:30:48;14.00;74.50
6536;DHT22;34330;52.08032700;5.40923460;2023-05-16T00:33:17;14.00;74.30
6536;DHT22;34330;52.08032700;5.40923460;2023-05-16T00:35:44;14.00;74.30
6536;DHT22;34330;52.08032700;5.40923460;2023-05-16T00:38:12;13.90;74.40
6536;DHT22;34330;52.08032700;5.40923460;2023-05-16T00:40:40;13.90;74.30
6536;DHT22;34330;52.08032700;5.40923460;2023-05-16T00:43:08;13.90;74.30
6536;DHT22;34330;52.08032700;5.40923460;2023-05-16T00:45:37;13.80;74.10
6536;DHT22;34330;52.08032700;5.40923460;2023-05-16T00:48:05;13.80;74.20
6536;DHT22;34330;52.08032700;5.40923460;2023-05-16T00:50:36;13.80;74.10
6536;DHT22;34330;52.08032700;5.40923460;2023-05-16T00:53:04;13.70;74.00
6536;DHT22;34330;52.08032700;5.40923460;2023-05-16T00:55:32;13.70;74.00
6536;DHT22;34330;52.08032700;5.40923460;2023-05-16T00:58:00;13.70;74.80
6536;DHT22;34330;52.08032700;5.40923460;2023-05-16T01:00:28;13.60;73.90
6536;DHT22;34330;52.08032700;5.40923460;2023-05-16T01:02:57;13.60;73.80
6536;DHT22;34330;52.08032700;5.40923460;2023-05-16T01:05:25;13.50;73.80
6536;DHT22;34330;52.08032700;5.40923460;2023-05-16T01:07:54;13.50;73.90
6536;DHT22;34330;52.08032700;5.40923460;2023-05-16T01:10:22;13.40;73.80
6536;DHT22;34330;52.08032700;5.40923460;2023-05-16T01:12:58;13.40;73.90
6536;DHT22;34330;52.08032700;5.40923460;2023-05-16T01:15:31;13.40;74.00
6536;DHT22;34330;52.08032700;5.40923460;2023-05-16T01:18:08;13.30;73.90
6536;DHT22;34330;52.08032700;5.40923460;2023-05-16T01:20:46;13.30;74.00
6536;DHT22;34330;52.08032700;5.40923460;2023-05-16T01:23:26;13.30;74.00
6536;DHT22;34330;52.08032700;5.40923460;2023-05-16T01:26:25;13.20;74.10
6536;DHT22;34330;52.08032700;5.40923460;2023-05-16T01:28:54;13.20;74.20
6536;DHT22;34330;52.08032700;5.40923460;2023-05-16T01:31:22;13.10;73.80
6536;DHT22;34330;52.08032700;5.40923460;2023-05-16T01:33:51;13.10;74.00
6536;DHT22;34330;52.08032700;5.40923460;2023-05-16T01:36:23;13.10;73.90
6536;DHT22;34330;52.08032700;5.40923460;2023-05-16T01:39:01;13.00;73.90
6536;DHT22;34330;52.08032700;5.40923460;2023-05-16T01:41:39;13.00;74.10
6536;DHT22;34330;52.08032700;5.40923460;2023-05-16T01:44:17;13.00;74.20
6536;DHT22;34330;52.08032700;5.40923460;2023-05-16T01:46:46;12.90;74.20
6536;DHT22;34330;52.08032700;5.40923460;2023-05-16T01:49:19;12.90;74.10
6536;DHT22;34330;52.08032700;5.40923460;2023-05-16T01:51:51;12.90;74.20
6536;DHT22;34330;52.08032700;5.40923460;2023-05-16T01:54:23;12.80;74.30
6536;DHT22;34330;52.08032700;5.40923460;2023-05-16T01:56:55;12.80;74.30
6536;DHT22;34330;52.08032700;5.40923460;2023-05-16T01:59:23;12.70;74.20
6536;DHT22;34330;52.08032700;5.40923460;2023-05-16T02:01:52;12.80;74.30
6536;DHT22;34330;52.08032700;5.40923460;2023-05-16T02:04:21;12.70;74.30
6536;DHT22;34330;52.08032700;5.40923460;2023-05-16T02:06:50;12.80;74.40
6536;DHT22;34330;52.08032700;5.40923460;2023-05-16T02:09:18;12.70;74.40
6536;DHT22;34330;52.08032700;5.40923460;2023-05-16T02:11:46;12.60;74.40
6536;DHT22;34330;52.08032700;5.40923460;2023-05-16T02:14:15;12.60;74.50
6536;DHT22;34330;52.08032700;5.40923460;2023-05-16T02:16:43;12.60;74.60
6536;DHT22;34330;52.08032700;5.40923460;2023-05-16T02:19:12;12.60;74.40
6536;DHT22;34330;52.08032700;5.40923460;2023-05-16T02:21:40;12.50;74.60
6536;DHT22;34330;52.08032700;5.40923460;2023-05-16T02:24:08;12.50;74.60
6536;DHT22;34330;52.08032700;5.40923460;2023-05-16T02:26:36;12.50;74.60
6536;DHT22;34330;52.08032700;5.40923460;2023-05-16T02:29:04;12.40;74.80
6536;DHT22;34330;52.08032700;5.40923460;2023-05-16T02:31:33;12.40;75.00
6536;DHT22;34330;52.08032700;5.40923460;2023-05-16T02:34:02;12.40;75.00
6536;DHT22;34330;52.08032700;5.40923460;2023-05-16T02:36:29;12.30;75.10
6536;DHT22;34330;52.08032700;5.40923460;2023-05-16T02:38:57;12.30;75.20
6536;DHT22;34330;52.08032700;5.40923460;2023-05-16T02:41:25;12.30;75.30
6536;DHT22;34330;52.08032700;5.40923460;2023-05-16T02:43:53;12.30;75.40
6536;DHT22;34330;52.08032700;5.40923460;2023-05-16T02:46:22;12.20;75.50
6536;DHT22;34330;52.08032700;5.40923460;2023-05-16T02:48:52;12.20;75.50
6536;DHT22;34330;52.08032700;5.40923460;2023-05-16T02:51:21;12.20;75.60
6536;DHT22;34330;52.08032700;5.40923460;2023-05-16T02:53:50;12.20;75.10
6536;DHT22;34330;52.08032700;5.40923460;2023-05-16T02:56:18;12.10;75.50
6536;DHT22;34330;52.08032700;5.40923460;2023-05-16T02:58:48;12.50;76.10
6536;DHT22;34330;52.08032700;5.40923460;2023-05-16T03:01:16;12.10;75.50
6536;DHT22;34330;52.08032700;5.40923460;2023-05-16T03:03:44;12.10;75.80
6536;DHT22;34330;52.08032700;5.40923460;2023-05-16T03:06:14;12.10;75.90
6536;DHT22;34330;52.08032700;5.40923460;2023-05-16T03:08:41;12.10;76.10
6536;DHT22;34330;52.08032700;5.40923460;2023-05-16T03:11:09;12.00;75.90
6536;DHT22;34330;52.08032700;5.40923460;2023-05-16T03:13:37;12.00;75.80
6536;DHT22;34330;52.08032700;5.40923460;2023-05-16T03:16:05;12.00;76.00
6536;DHT22;34330;52.08032700;5.40923460;2023-05-16T03:18:33;12.00;76.00
6536;DHT22;34330;52.08032700;5.40923460;2023-05-16T03:21:01;12.00;76.10
6536;DHT22;34330;52.08032700;5.40923460;2023-05-16T03:23:30;12.00;76.40
6536;DHT22;34330;52.08032700;5.40923460;2023-05-16T03:25:58;12.00;76.50
6536;DHT22;34330;52.08032700;5.40923460;2023-05-16T03:28:26;11.90;76.40
6536;DHT22;34330;52.08032700;5.40923460;2023-05-16T03:30:54;11.90;76.30
6536;DHT22;34330;52.08032700;5.40923460;2023-05-16T03:33:22;11.90;76.40
6536;DHT22;34330;52.08032700;5.40923460;2023-05-16T03:35:50;11.90;76.10
6536;DHT22;34330;52.08032700;5.40923460;2023-05-16T03:38:18;11.80;76.20
6536;DHT22;34330;52.08032700;5.40923460;2023-05-16T03:40:48;11.80;76.20
6536;DHT22;34330;52.08032700;5.40923460;2023-05-16T03:43:16;11.80;76.30
6536;DHT22;34330;52.08032700;5.40923460;2023-05-16T03:45:44;11.80;76.40
6536;DHT22;34330;52.08032700;5.40923460;2023-05-16T03:48:13;11.80;76.40
6536;DHT22;34330;52.08032700;5.40923460;2023-05-16T03:50:40;11.80;76.40
6536;DHT22;34330;52.08032700;5.40923460;2023-05-16T03:53:08;11.70;76.50
6536;DHT22;34330;52.08032700;5.40923460;2023-05-16T03:55:37;11.70;76.70
6536;DHT22;34330;52.08032700;5.40923460;2023-05-16T03:58:06;11.70;76.60
6536;DHT22;34330;52.08032700;5.40923460;2023-05-16T04:00:34;11.70;76.70
6536;DHT22;34330;52.08032700;5.40923460;2023-05-16T04:03:02;11.60;76.70
6536;DHT22;34330;52.08032700;5.40923460;2023-05-16T04:05:30;11.70;76.80
6536;DHT22;34330;52.08032700;5.40923460;2023-05-16T04:07:58;11.60;77.50
6536;DHT22;34330;52.08032700;5.40923460;2023-05-16T04:10:26;11.50;77.80
6536;DHT22;34330;52.08032700;5.40923460;2023-05-16T04:12:54;11.60;77.70
6536;DHT22;34330;52.08032700;5.40923460;2023-05-16T04:15:23;11.50;77.50
6536;DHT22;34330;52.08032700;5.40923460;2023-05-16T04:17:52;11.60;77.50
6536;DHT22;34330;52.08032700;5.40923460;2023-05-16T04:20:20;11.60;77.30
6536;DHT22;34330;52.08032700;5.40923460;2023-05-16T04:22:48;11.60;77.30
6536;DHT22;34330;52.08032700;5.40923460;2023-05-16T04:25:16;11.60;77.00
6536;DHT22;34330;52.08032700;5.40923460;2023-05-16T04:27:44;11.60;77.20
6536;DHT22;34330;52.08032700;5.40923460;2023-05-16T04:30:13;11.50;77.10
6536;DHT22;34330;52.08032700;5.40923460;2023-05-16T04:32:42;11.60;77.10
6536;DHT22;34330;52.08032700;5.40923460;2023-05-16T04:35:10;11.50;77.20
6536;DHT22;34330;52.08032700;5.40923460;2023-05-16T04:37:38;11.50;77.10
6536;DHT22;34330;52.08032700;5.40923460;2023-05-16T04:40:07;11.50;77.30
6536;DHT22;34330;52.08032700;5.40923460;2023-05-16T04:42:36;11.50;78.10
6536;DHT22;34330;52.08032700;5.40923460;2023-05-16T04:45:05;11.60;77.50
6536;DHT22;34330;52.08032700;5.40923460;2023-05-16T04:47:36;11.60;77.60
6536;DHT22;34330;52.08032700;5.40923460;2023-05-16T04:50:07;11.60;77.50
6536;DHT22;34330;52.08032700;5.40923460;2023-05-16T04:52:35;11.50;77.70
6536;DHT22;34330;52.08032700;5.40923460;2023-05-16T04:55:04;11.50;77.60
6536;DHT22;34330;52.08032700;5.40923460;2023-05-16T04:57:32;11.60;77.80
6536;DHT22;34330;52.08032700;5.40923460;2023-05-16T05:00:00;11.60;77.90
6536;DHT22;34330;52.08032700;5.40923460;2023-05-16T05:02:31;11.60;77.90
6536;DHT22;34330;52.08032700;5.40923460;2023-05-16T05:04:59;11.60;78.10
6536;DHT22;34330;52.08032700;5.40923460;2023-05-16T05:07:29;11.60;78.10
6536;DHT22;34330;52.08032700;5.40923460;2023-05-16T05:09:57;11.60;78.20
6536;DHT22;34330;52.08032700;5.40923460;2023-05-16T05:12:24;11.70;78.30
6536;DHT22;34330;52.08032700;5.40923460;2023-05-16T05:14:53;11.70;78.50
6536;DHT22;34330;52.08032700;5.40923460;2023-05-16T05:17:22;11.70;78.60
6536;DHT22;34330;52.08032700;5.40923460;2023-05-16T05:19:50;11.80;78.80
6536;DHT22;34330;52.08032700;5.40923460;2023-05-16T05:22:18;11.80;78.90
6536;DHT22;34330;52.08032700;5.40923460;2023-05-16T05:24:47;11.80;78.90
6536;DHT22;34330;52.08032700;5.40923460;2023-05-16T05:27:15;11.90;78.90
6536;DHT22;34330;52.08032700;5.40923460;2023-05-16T05:29:43;12.00;79.20
6536;DHT22;34330;52.08032700;5.40923460;2023-05-16T05:32:11;12.00;79.20
6536;DHT22;34330;52.08032700;5.40923460;2023-05-16T05:34:39;12.10;79.30
6536;DHT22;34330;52.08032700;5.40923460;2023-05-16T05:37:07;12.10;79.30
6536;DHT22;34330;52.08032700;5.40923460;2023-05-16T05:39:35;12.20;79.30
6536;DHT22;34330;52.08032700;5.40923460;2023-05-16T05:42:05;12.30;79.10
6536;DHT22;34330;52.08032700;5.40923460;2023-05-16T05:44:33;12.40;79.30
6536;DHT22;34330;52.08032700;5.40923460;2023-05-16T05:47:03;12.40;79.00
6536;DHT22;34330;52.08032700;5.40923460;2023-05-16T05:49:32;12.50;79.10
6536;DHT22;34330;52.08032700;5.40923460;2023-05-16T05:52:01;12.60;79.00
6536;DHT22;34330;52.08032700;5.40923460;2023-05-16T05:54:29;12.60;78.50
6536;DHT22;34330;52.08032700;5.40923460;2023-05-16T05:56:57;12.70;78.40
6536;DHT22;34330;52.08032700;5.40923460;2023-05-16T05:59:26;12.80;78.20
6536;DHT22;34330;52.08032700;5.40923460;2023-05-16T06:01:54;12.80;78.10
6536;DHT22;34330;52.08032700;5.40923460;2023-05-16T06:04:23;12.90;78.10
6536;DHT22;34330;52.08032700;5.40923460;2023-05-16T06:06:51;13.00;78.10
6536;DHT22;34330;52.08032700;5.40923460;2023-05-16T06:09:20;13.00;78.10
6536;DHT22;34330;52.08032700;5.40923460;2023-05-16T06:11:48;13.20;78.10
6536;DHT22;34330;52.08032700;5.40923460;2023-05-16T06:14:16;13.30;77.90
6536;DHT22;34330;52.08032700;5.40923460;2023-05-16T06:16:45;13.30;77.90
6536;DHT22;34330;52.08032700;5.40923460;2023-05-16T06:19:14;13.40;77.60
6536;DHT22;34330;52.08032700;5.40923460;2023-05-16T06:21:43;13.50;77.10
6536;DHT22;34330;52.08032700;5.40923460;2023-05-16T06:24:11;13.50;77.10
6536;DHT22;34330;52.08032700;5.40923460;2023-05-16T06:26:39;13.60;77.10
6536;DHT22;34330;52.08032700;5.40923460;2023-05-16T06:29:07;13.70;77.20
6536;DHT22;34330;52.08032700;5.40923460;2023-05-16T06:31:35;13.80;77.20
6536;DHT22;34330;52.08032700;5.40923460;2023-05-16T06:34:04;13.90;77.30
6536;DHT22;34330;52.08032700;5.40923460;2023-05-16T06:36:32;14.00;76.80
6536;DHT22;34330;52.08032700;5.40923460;2023-05-16T06:39:00;14.10;76.30
6536;DHT22;34330;52.08032700;5.40923460;2023-05-16T06:41:28;14.20;76.10
6536;DHT22;34330;52.08032700;5.40923460;2023-05-16T06:43:56;14.30;75.20
6536;DHT22;34330;52.08032700;5.40923460;2023-05-16T06:46:24;14.40;74.50
6536;DHT22;34330;52.08032700;5.40923460;2023-05-16T06:48:51;14.50;74.20
6536;DHT22;34330;52.08032700;5.40923460;2023-05-16T06:51:21;14.60;74.70
6536;DHT22;34330;52.08032700;5.40923460;2023-05-16T06:53:49;14.70;73.60
6536;DHT22;34330;52.08032700;5.40923460;2023-05-16T06:56:17;14.80;73.60
6536;DHT22;34330;52.08032700;5.40923460;2023-05-16T06:58:45;14.90;72.60
6536;DHT22;34330;52.08032700;5.40923460;2023-05-16T07:01:13;15.00;72.00
6536;DHT22;34330;52.08032700;5.40923460;2023-05-16T07:03:41;15.10;71.50
6536;DHT22;34330;52.08032700;5.40923460;2023-05-16T07:06:09;15.20;70.50
6536;DHT22;34330;52.08032700;5.40923460;2023-05-16T07:08:38;15.30;69.80
6536;DHT22;34330;52.08032700;5.40923460;2023-05-16T07:11:06;15.40;69.50
6536;DHT22;34330;52.08032700;5.40923460;2023-05-16T07:13:34;15.40;69.20
6536;DHT22;34330;52.08032700;5.40923460;2023-05-16T07:16:02;15.50;69.50
6536;DHT22;34330;52.08032700;5.40923460;2023-05-16T07:18:30;15.50;69.60
6536;DHT22;34330;52.08032700;5.40923460;2023-05-16T07:20:58;15.60;68.40
6536;DHT22;34330;52.08032700;5.40923460;2023-05-16T07:23:26;15.60;68.00
6536;DHT22;34330;52.08032700;5.40923460;2023-05-16T07:25:56;15.70;68.70
6536;DHT22;34330;52.08032700;5.40923460;2023-05-16T07:28:23;15.70;67.50
6536;DHT22;34330;52.08032700;5.40923460;2023-05-16T07:30:51;15.80;69.10
6536;DHT22;34330;52.08032700;5.40923460;2023-05-16T07:33:20;15.90;67.90
6536;DHT22;34330;52.08032700;5.40923460;2023-05-16T07:35:48;15.90;67.80
6536;DHT22;34330;52.08032700;5.40923460;2023-05-16T07:38:20;16.00;67.60
6536;DHT22;34330;52.08032700;5.40923460;2023-05-16T07:40:48;16.10;67.00
6536;DHT22;34330;52.08032700;5.40923460;2023-05-16T07:43:17;16.20;66.90
6536;DHT22;34330;52.08032700;5.40923460;2023-05-16T07:45:45;16.20;66.10
6536;DHT22;34330;52.08032700;5.40923460;2023-05-16T07:48:13;16.30;66.90
6536;DHT22;34330;52.08032700;5.40923460;2023-05-16T07:50:42;16.40;67.00
6536;DHT22;34330;52.08032700;5.40923460;2023-05-16T07:53:16;16.50;65.70
6536;DHT22;34330;52.08032700;5.40923460;2023-05-16T07:55:44;16.60;65.40
6536;DHT22;34330;52.08032700;5.40923460;2023-05-16T07:58:11;16.60;66.00
6536;DHT22;34330;52.08032700;5.40923460;2023-05-16T08:00:41;16.60;64.80
6536;DHT22;34330;52.08032700;5.40923460;2023-05-16T08:03:09;16.70;64.30
6536;DHT22;34330;52.08032700;5.40923460;2023-05-16T08:05:37;16.70;64.70
6536;DHT22;34330;52.08032700;5.40923460;2023-05-16T08:08:05;16.80;64.70
6536;DHT22;34330;52.08032700;5.40923460;2023-05-16T08:10:33;16.90;65.00
6536;DHT22;34330;52.08032700;5.40923460;2023-05-16T08:13:01;16.90;63.90
6536;DHT22;34330;52.08032700;5.40923460;2023-05-16T08:15:29;17.00;64.70
6536;DHT22;34330;52.08032700;5.40923460;2023-05-16T08:17:58;17.10;64.00
6536;DHT22;34330;52.08032700;5.40923460;2023-05-16T08:20:26;17.10;64.30
6536;DHT22;34330;52.08032700;5.40923460;2023-05-16T08:22:55;17.10;65.10
6536;DHT22;34330;52.08032700;5.40923460;2023-05-16T08:25:23;17.00;64.60
6536;DHT22;34330;52.08032700;5.40923460;2023-05-16T08:27:52;19.00;65.70
6536;DHT22;34330;52.08032700;5.40923460;2023-05-16T08:30:20;16.90;64.00
6536;DHT22;34330;52.08032700;5.40923460;2023-05-16T08:32:48;16.80;63.90
6536;DHT22;34330;52.08032700;5.40923460;2023-05-16T08:35:17;16.80;63.40
6536;DHT22;34330;52.08032700;5.40923460;2023-05-16T08:37:45;16.80;63.80
6536;DHT22;34330;52.08032700;5.40923460;2023-05-16T08:40:14;16.90;65.00
6536;DHT22;34330;52.08032700;5.40923460;2023-05-16T08:42:43;16.90;65.70
6536;DHT22;34330;52.08032700;5.40923460;2023-05-16T08:45:11;17.00;65.60
6536;DHT22;34330;52.08032700;5.40923460;2023-05-16T08:47:41;17.10;64.70
6536;DHT22;34330;52.08032700;5.40923460;2023-05-16T08:50:11;17.20;63.60
6536;DHT22;34330;52.08032700;5.40923460;2023-05-16T08:52:41;18.80;63.30
6536;DHT22;34330;52.08032700;5.40923460;2023-05-16T08:55:10;17.30;62.50
6536;DHT22;34330;52.08032700;5.40923460;2023-05-16T08:57:39;17.30;62.00
6536;DHT22;34330;52.08032700;5.40923460;2023-05-16T09:00:09;17.30;63.10
6536;DHT22;34330;52.08032700;5.40923460;2023-05-16T09:02:39;17.40;63.40
6536;DHT22;34330;52.08032700;5.40923460;2023-05-16T09:05:09;17.50;60.40
6536;DHT22;34330;52.08032700;5.40923460;2023-05-16T09:07:39;17.50;59.10
6536;DHT22;34330;52.08032700;5.40923460;2023-05-16T09:10:08;17.60;58.50
6536;DHT22;34330;52.08032700;5.40923460;2023-05-16T09:12:37;17.70;58.90
6536;DHT22;34330;52.08032700;5.40923460;2023-05-16T09:15:06;17.80;59.50
6536;DHT22;34330;52.08032700;5.40923460;2023-05-16T09:17:35;17.90;60.00
6536;DHT22;34330;52.08032700;5.40923460;2023-05-16T09:20:11;18.00;60.40
6536;DHT22;34330;52.08032700;5.40923460;2023-05-16T09:22:49;18.10;58.90
6536;DHT22;34330;52.08032700;5.40923460;2023-05-16T09:25:19;18.10;57.40
6536;DHT22;34330;52.08032700;5.40923460;2023-05-16T09:27:58;18.20;56.50
6536;DHT22;34330;52.08032700;5.40923460;2023-05-16T09:30:28;18.20;56.50
6536;DHT22;34330;52.08032700;5.40923460;2023-05-16T09:32:57;18.20;57.80
6536;DHT22;34330;52.08032700;5.40923460;2023-05-16T09:35:26;18.30;57.20
6536;DHT22;34330;52.08032700;5.40923460;2023-05-16T09:37:58;18.40;54.80
6536;DHT22;34330;52.08032700;5.40923460;2023-05-16T09:40:25;18.50;55.20
6536;DHT22;34330;52.08032700;5.40923460;2023-05-16T09:43:01;18.60;55.10
6536;DHT22;34330;52.08032700;5.40923460;2023-05-16T09:45:30;18.60;54.30
6536;DHT22;34330;52.08032700;5.40923460;2023-05-16T09:48:01;18.30;54.00
6536;DHT22;34330;52.08032700;5.40923460;2023-05-16T09:50:32;18.80;54.90
6536;DHT22;34330;52.08032700;5.40923460;2023-05-16T09:53:02;18.80;55.90
6536;DHT22;34330;52.08032700;5.40923460;2023-05-16T09:55:30;18.70;55.90
6536;DHT22;34330;52.08032700;5.40923460;2023-05-16T09:57:58;18.70;55.50
6536;DHT22;34330;52.08032700;5.40923460;2023-05-16T10:00:28;18.70;56.10
6536;DHT22;34330;52.08032700;5.40923460;2023-05-16T10:02:58;18.70;55.10
6536;DHT22;34330;52.08032700;5.40923460;2023-05-16T10:05:31;18.70;55.90
6536;DHT22;34330;52.08032700;5.40923460;2023-05-16T10:07:59;18.80;56.00
6536;DHT22;34330;52.08032700;5.40923460;2023-05-16T10:10:30;18.90;55.10
6536;DHT22;34330;52.08032700;5.40923460;2023-05-16T10:13:01;18.90;54.80
6536;DHT22;34330;52.08032700;5.40923460;2023-05-16T10:15:30;19.10;55.00
6536;DHT22;34330;52.08032700;5.40923460;2023-05-16T10:17:58;19.10;55.60
6536;DHT22;34330;52.08032700;5.40923460;2023-05-16T10:20:27;19.20;55.10
6536;DHT22;34330;52.08032700;5.40923460;2023-05-16T10:22:57;19.30;53.90
6536;DHT22;34330;52.08032700;5.40923460;2023-05-16T10:25:28;19.40;53.80
6536;DHT22;34330;52.08032700;5.40923460;2023-05-16T10:27:59;19.50;53.40
6536;DHT22;34330;52.08032700;5.40923460;2023-05-16T10:30:27;19.60;53.30
6536;DHT22;34330;52.08032700;5.40923460;2023-05-16T10:32:56;19.60;53.80
6536;DHT22;34330;52.08032700;5.40923460;2023-05-16T10:35:24;19.70;54.40
6536;DHT22;34330;52.08032700;5.40923460;2023-05-16T10:37:53;19.60;53.60
6536;DHT22;34330;52.08032700;5.40923460;2023-05-16T10:40:21;19.70;53.90
6536;DHT22;34330;52.08032700;5.40923460;2023-05-16T10:42:54;19.60;53.70
6536;DHT22;34330;52.08032700;5.40923460;2023-05-16T10:45:24;19.60;52.60
6536;DHT22;34330;52.08032700;5.40923460;2023-05-16T10:47:54;19.60;52.30
6536;DHT22;34330;52.08032700;5.40923460;2023-05-16T10:50:32;19.60;52.20
6536;DHT22;34330;52.08032700;5.40923460;2023-05-16T10:53:18;19.60;51.50
6536;DHT22;34330;52.08032700;5.40923460;2023-05-16T10:56:05;19.60;51.30
6536;DHT22;34330;52.08032700;5.40923460;2023-05-16T10:58:41;19.60;52.20
6536;DHT22;34330;52.08032700;5.40923460;2023-05-16T11:01:21;19.60;53.10
6536;DHT22;34330;52.08032700;5.40923460;2023-05-16T11:04:09;19.70;53.10
6536;DHT22;34330;52.08032700;5.40923460;2023-05-16T11:06:45;19.70;52.90
6536;DHT22;34330;52.08032700;5.40923460;2023-05-16T11:09:24;19.80;51.10
6536;DHT22;34330;52.08032700;5.40923460;2023-05-16T11:11:59;19.90;52.10
6536;DHT22;34330;52.08032700;5.40923460;2023-05-16T11:14:35;19.90;51.30
6536;DHT22;34330;52.08032700;5.40923460;2023-05-16T11:17:08;20.00;49.40
6536;DHT22;34330;52.08032700;5.40923460;2023-05-16T11:19:43;20.00;50.10
6536;DHT22;34330;52.08032700;5.40923460;2023-05-16T11:22:20;20.00;48.90
6536;DHT22;34330;52.08032700;5.40923460;2023-05-16T11:24:50;20.00;48.90
6536;DHT22;34330;52.08032700;5.40923460;2023-05-16T11:27:24;20.00;49.00
6536;DHT22;34330;52.08032700;5.40923460;2023-05-16T11:29:53;20.00;48.50
6536;DHT22;34330;52.08032700;5.40923460;2023-05-16T11:32:23;19.90;48.30
6536;DHT22;34330;52.08032700;5.40923460;2023-05-16T11:34:51;19.90;48.00
6536;DHT22;34330;52.08032700;5.40923460;2023-05-16T11:37:20;19.80;48.40
6536;DHT22;34330;52.08032700;5.40923460;2023-05-16T11:39:48;19.70;48.10
6536;DHT22;34330;52.08032700;5.40923460;2023-05-16T11:42:17;19.70;49.10
6536;DHT22;34330;52.08032700;5.40923460;2023-05-16T11:44:45;19.60;49.70
6536;DHT22;34330;52.08032700;5.40923460;2023-05-16T11:47:14;19.60;49.90
6536;DHT22;34330;52.08032700;5.40923460;2023-05-16T11:49:43;19.50;49.70
6536;DHT22;34330;52.08032700;5.40923460;2023-05-16T11:52:14;19.50;49.70
6536;DHT22;34330;52.08032700;5.40923460;2023-05-16T11:54:42;19.40;50.00
6536;DHT22;34330;52.08032700;5.40923460;2023-05-16T11:57:10;19.30;50.40
6536;DHT22;34330;52.08032700;5.40923460;2023-05-16T11:59:38;19.30;50.40
6536;DHT22;34330;52.08032700;5.40923460;2023-05-16T12:02:07;19.30;50.70
6536;DHT22;34330;52.08032700;5.40923460;2023-05-16T12:04:36;19.20;50.70
6536;DHT22;34330;52.08032700;5.40923460;2023-05-16T12:07:06;19.20;51.00
6536;DHT22;34330;52.08032700;5.40923460;2023-05-16T12:09:34;19.20;50.90
6536;DHT22;34330;52.08032700;5.40923460;2023-05-16T12:12:04;19.20;50.80
6536;DHT22;34330;52.08032700;5.40923460;2023-05-16T12:14:32;19.20;51.60
6536;DHT22;34330;52.08032700;5.40923460;2023-05-16T12:17:00;19.20;51.10
6536;DHT22;34330;52.08032700;5.40923460;2023-05-16T12:19:30;19.20;51.30
6536;DHT22;34330;52.08032700;5.40923460;2023-05-16T12:21:58;19.20;50.90
6536;DHT22;34330;52.08032700;5.40923460;2023-05-16T12:24:30;19.20;50.80
6536;DHT22;34330;52.08032700;5.40923460;2023-05-16T12:26:58;19.20;50.40
6536;DHT22;34330;52.08032700;5.40923460;2023-05-16T12:29:26;19.30;50.80
6536;DHT22;34330;52.08032700;5.40923460;2023-05-16T12:31:54;19.30;50.80
6536;DHT22;34330;52.08032700;5.40923460;2023-05-16T12:34:22;19.20;50.50
6536;DHT22;34330;52.08032700;5.40923460;2023-05-16T12:36:51;19.20;50.60
6536;DHT22;34330;52.08032700;5.40923460;2023-05-16T12:39:20;19.20;50.80
6536;DHT22;34330;52.08032700;5.40923460;2023-05-16T12:41:50;19.20;51.50
6536;DHT22;34330;52.08032700;5.40923460;2023-05-16T12:44:18;19.20;51.50
6536;DHT22;34330;52.08032700;5.40923460;2023-05-16T12:46:50;19.30;51.90
6536;DHT22;34330;52.08032700;5.40923460;2023-05-16T12:49:19;19.40;51.30
6536;DHT22;34330;52.08032700;5.40923460;2023-05-16T12:51:49;19.40;51.50
6536;DHT22;34330;52.08032700;5.40923460;2023-05-16T12:54:18;19.50;51.40
6536;DHT22;34330;52.08032700;5.40923460;2023-05-16T12:56:46;19.50;51.00
6536;DHT22;34330;52.08032700;5.40923460;2023-05-16T12:59:15;19.50;51.50
6536;DHT22;34330;52.08032700;5.40923460;2023-05-16T13:01:45;19.50;51.40
6536;DHT22;34330;52.08032700;5.40923460;2023-05-16T13:04:14;19.50;51.10
6536;DHT22;34330;52.08032700;5.40923460;2023-05-16T13:06:45;19.50;51.10
6536;DHT22;34330;52.08032700;5.40923460;2023-05-16T13:09:24;19.60;51.10
6536;DHT22;34330;52.08032700;5.40923460;2023-05-16T13:11:56;19.50;51.10
6536;DHT22;34330;52.08032700;5.40923460;2023-05-16T13:14:26;19.50;50.60
6536;DHT22;34330;52.08032700;5.40923460;2023-05-16T13:16:54;19.40;50.20
6536;DHT22;34330;52.08032700;5.40923460;2023-05-16T13:19:22;19.40;50.40
6536;DHT22;34330;52.08032700;5.40923460;2023-05-16T13:21:51;19.30;50.80
6536;DHT22;34330;52.08032700;5.40923460;2023-05-16T13:24:19;19.20;50.90
6536;DHT22;34330;52.08032700;5.40923460;2023-05-16T13:26:46;19.30;51.30
6536;DHT22;34330;52.08032700;5.40923460;2023-05-16T13:29:15;19.20;51.20
6536;DHT22;34330;52.08032700;5.40923460;2023-05-16T13:31:44;19.20;51.40
6536;DHT22;34330;52.08032700;5.40923460;2023-05-16T13:34:12;19.20;51.40
6536;DHT22;34330;52.08032700;5.40923460;2023-05-16T13:36:41;19.30;51.20
6536;DHT22;34330;52.08032700;5.40923460;2023-05-16T13:39:20;19.30;50.80
6536;DHT22;34330;52.08032700;5.40923460;2023-05-16T13:41:49;19.20;50.50
6536;DHT22;34330;52.08032700;5.40923460;2023-05-16T13:44:17;19.20;50.80
6536;DHT22;34330;52.08032700;5.40923460;2023-05-16T13:46:46;19.20;51.00